createdAt,value
2022-11-29T00:01:05.843Z,22.20
2022-11-29T00:04:08.569Z,20.17
2022-11-29T00:07:11.299Z,19.48
2022-11-29T00:10:13.964Z,21.27
2022-11-29T00:13:18.088Z,18.33
2022-11-29T00:16:20.585Z,19.98
2022-11-29T00:19:23.926Z,18.97
2022-11-29T00:22:26.382Z,20.40
2022-11-29T00:25:28.894Z,21.25
2022-11-29T00:28:31.517Z,18.20
2022-11-29T00:31:34.935Z,19.00
2022-11-29T00:34:38.033Z,19.43
2022-11-29T00:37:40.571Z,19.25
2022-11-29T00:40:43.103Z,20.10
2022-11-29T00:43:45.647Z,17.70
2022-11-29T00:46:48.354Z,20.85
2022-11-29T00:49:50.919Z,17.83
2022-11-29T00:52:53.356Z,17.15
2022-11-29T00:55:56.513Z,20.48
2022-11-29T00:58:59.218Z,20.30
2022-11-29T01:02:01.844Z,17.20
2022-11-29T01:05:04.805Z,16.80
2022-11-29T01:08:07.454Z,18.05
2022-11-29T01:11:19.806Z,17.10
2022-11-29T01:14:22.442Z,16.25
2022-11-29T01:17:24.982Z,16.58
2022-11-29T01:20:27.995Z,18.70
2022-11-29T01:23:30.813Z,19.58
2022-11-29T01:26:33.431Z,17.00
2022-11-29T01:29:36.258Z,18.55
2022-11-29T01:32:39.363Z,18.05
2022-11-29T01:35:51.476Z,17.27
2022-11-29T01:38:54.824Z,17.38
2022-11-29T01:41:58.138Z,17.70
2022-11-29T01:45:18.959Z,17.35
2022-11-29T01:48:26.263Z,17.40
2022-11-29T01:51:29.832Z,17.27
2022-11-29T01:54:35.395Z,16.00
2022-11-29T01:57:41.068Z,19.70
2022-11-29T02:00:45.962Z,17.73
2022-11-29T02:03:48.534Z,17.95
2022-11-29T02:06:51.258Z,19.20
2022-11-29T02:09:53.753Z,19.10
2022-11-29T02:13:11.633Z,18.20
2022-11-29T02:16:24.354Z,18.50
2022-11-29T02:20:02.130Z,18.60
2022-11-29T02:23:31.838Z,20.43
2022-11-29T02:26:49.281Z,19.55
2022-11-29T02:30:10.307Z,19.05
2022-11-29T02:33:18.546Z,18.55
2022-11-29T02:36:51.869Z,17.73
2022-11-29T02:40:09.508Z,19.50
2022-11-29T02:43:14.791Z,18.10
2022-11-29T02:46:38.832Z,17.88
2022-11-29T02:50:00.921Z,17.52
2022-11-29T02:53:10.772Z,18.15
2022-11-29T02:56:23.576Z,18.13
2022-11-29T02:59:50.791Z,18.23
2022-11-29T03:03:07.115Z,17.67
2022-11-29T03:06:18.468Z,20.42
2022-11-29T03:09:49.276Z,20.00
2022-11-29T03:12:54.479Z,19.00
2022-11-29T03:16:23.740Z,20.63
2022-11-29T03:20:04.503Z,18.38
2022-11-29T03:23:18.817Z,17.83
2022-11-29T03:26:26.845Z,17.90
2022-11-29T03:29:44.853Z,19.50
2022-11-29T03:33:15.300Z,21.17
2022-11-29T03:36:33.829Z,20.70
2022-11-29T03:39:45.599Z,20.65
2022-11-29T03:42:56.435Z,20.75
2022-11-29T03:46:05.094Z,20.10
2022-11-29T03:49:22.751Z,21.98
2022-11-29T03:52:47.504Z,18.38
2022-11-29T03:55:58.856Z,21.08
2022-11-29T03:59:35.321Z,20.65
2022-11-29T04:03:09.869Z,21.37
2022-11-29T04:06:53.634Z,19.58
2022-11-29T04:10:20.303Z,21.45
2022-11-29T04:14:07.467Z,21.75
2022-11-29T04:17:47.065Z,21.05
2022-11-29T04:20:58.470Z,20.13
2022-11-29T04:24:16.044Z,20.55
2022-11-29T04:27:43.538Z,20.98
2022-11-29T04:31:01.864Z,22.08
2022-11-29T04:34:28.401Z,20.17
2022-11-29T04:38:01.748Z,20.57
2022-11-29T04:41:20.491Z,18.90
2022-11-29T04:44:34.843Z,22.00
2022-11-29T04:47:43.460Z,22.23
2022-11-29T04:50:56.413Z,21.90
2022-11-29T04:54:11.254Z,21.97
2022-11-29T04:57:30.558Z,21.15
2022-11-29T05:00:44.794Z,22.70
2022-11-29T05:04:02.150Z,22.15
2022-11-29T05:07:14.575Z,21.95
2022-11-29T05:10:50.476Z,22.20
2022-11-29T05:14:24.955Z,23.33
2022-11-29T05:17:53.335Z,21.90
2022-11-29T05:21:09.834Z,22.08
2022-11-29T05:24:15.053Z,19.42
2022-11-29T05:27:52.650Z,20.53
2022-11-29T05:31:23.618Z,19.58
2022-11-29T05:34:30.261Z,19.00
2022-11-29T05:37:45.087Z,20.25
2022-11-29T05:41:09.376Z,20.20
2022-11-29T05:44:18.265Z,18.47
2022-11-29T05:47:40.296Z,20.10
2022-11-29T05:50:48.470Z,22.63
2022-11-29T05:54:02.575Z,22.00
2022-11-29T05:57:23.850Z,21.73
2022-11-29T06:00:58.118Z,21.73
2022-11-29T06:04:11.713Z,22.85
2022-11-29T06:07:26.260Z,22.98
2022-11-29T06:10:33.092Z,23.80
2022-11-29T06:13:46.072Z,22.27
2022-11-29T06:16:51.425Z,22.50
2022-11-29T06:20:26.404Z,21.65
2022-11-29T06:23:44.257Z,21.10
2022-11-29T06:27:11.786Z,24.02
2022-11-29T06:30:20.909Z,23.02
2022-11-29T06:33:29.105Z,22.00
2022-11-29T06:36:42.962Z,23.40
2022-11-29T06:39:45.744Z,21.15
2022-11-29T06:42:49.079Z,23.33
2022-11-29T06:45:56.737Z,21.75
2022-11-29T06:49:28.059Z,20.20
2022-11-29T06:52:39.931Z,18.85
2022-11-29T06:55:56.634Z,21.13
2022-11-29T06:59:12.323Z,18.70
2022-11-29T07:03:06.918Z,20.45
2022-11-29T07:06:28.190Z,19.83
2022-11-29T07:09:35.837Z,21.80
2022-11-29T07:12:38.699Z,19.90
2022-11-29T07:15:50.339Z,21.45
2022-11-29T07:19:21.944Z,19.75
2022-11-29T07:22:50.107Z,20.17
2022-11-29T07:26:15.351Z,19.90
2022-11-29T07:29:33.017Z,22.88
2022-11-29T07:33:00.772Z,22.38
2022-11-29T07:36:15.462Z,21.63
2022-11-29T07:39:29.962Z,19.90
2022-11-29T07:43:08.900Z,19.92
2022-11-29T07:46:11.680Z,21.27
2022-11-29T07:49:14.385Z,24.73
2022-11-29T07:52:19.178Z,20.85
2022-11-29T07:55:24.846Z,20.80
2022-11-29T07:58:27.613Z,20.20
2022-11-29T08:01:33.027Z,22.25
2022-11-29T08:04:35.690Z,20.80
2022-11-29T08:07:41.273Z,26.63
2022-11-29T08:10:45.194Z,22.13
2022-11-29T08:13:51.246Z,19.38
2022-11-29T08:16:53.815Z,21.42
2022-11-29T08:20:00.040Z,21.65
2022-11-29T08:23:06.632Z,21.23
2022-11-29T08:26:11.985Z,23.03
2022-11-29T08:29:14.822Z,21.25
2022-11-29T08:32:17.730Z,19.67
2022-11-29T08:35:22.403Z,19.67
2022-11-29T08:38:26.176Z,19.80
2022-11-29T08:41:29.824Z,20.47
2022-11-29T08:44:33.746Z,24.83
2022-11-29T08:47:37.630Z,21.48
2022-11-29T08:50:40.065Z,21.38
2022-11-29T08:53:42.553Z,29.67
2022-11-29T08:57:31.393Z,24.93
2022-11-29T09:00:08.863Z,30.88
2022-11-29T09:03:32.809Z,26.02
2022-11-29T09:06:45.307Z,22.50
2022-11-29T09:09:48.581Z,22.30
2022-11-29T09:12:52.806Z,24.13
2022-11-29T09:15:55.528Z,25.48
2022-11-29T09:19:00.792Z,25.25
2022-11-29T09:22:10.451Z,26.13
2022-11-29T09:25:13.345Z,27.00
2022-11-29T09:28:16.183Z,23.30
2022-11-29T09:31:20.361Z,25.35
2022-11-29T09:34:24.318Z,21.90
2022-11-29T09:37:26.958Z,26.05
2022-11-29T09:40:40.242Z,23.35
2022-11-29T09:44:01.188Z,23.97
2022-11-29T09:47:21.892Z,19.75
2022-11-29T09:50:40.815Z,22.92
2022-11-29T09:54:06.634Z,23.80
2022-11-29T09:57:11.048Z,24.67
2022-11-29T10:00:20.172Z,24.60
2022-11-29T10:03:44.964Z,23.25
2022-11-29T10:07:05.613Z,28.25
2022-11-29T10:10:20.604Z,22.25
2022-11-29T10:13:37.037Z,23.30
2022-11-29T10:17:20.298Z,21.07
2022-11-29T10:20:25.824Z,23.52
2022-11-29T10:24:19.720Z,25.15
2022-11-29T10:27:24.068Z,25.95
2022-11-29T10:35:12.164Z,26.03
2022-11-29T10:43:34.198Z,24.80
2022-11-29T10:46:37.399Z,20.67
2022-11-29T10:49:40.503Z,24.00
2022-11-29T10:52:43.438Z,26.53
2022-11-29T10:56:02.931Z,25.15
2022-11-29T10:59:09.649Z,26.55
2022-11-29T11:02:19.541Z,26.83
2022-11-29T11:05:26.908Z,24.15
2022-11-29T11:08:35.249Z,25.30
2022-11-29T11:11:40.337Z,25.58
2022-11-29T11:14:44.831Z,23.30
2022-11-29T11:18:04.992Z,23.00
2022-11-29T11:21:12.785Z,20.88
2022-11-29T11:24:25.803Z,23.97
2022-11-29T11:27:37.352Z,22.55
2022-11-29T11:30:49.979Z,25.60
2022-11-29T11:33:52.631Z,26.20
2022-11-29T11:37:15.062Z,25.42
2022-11-29T11:40:26.813Z,23.37
2022-11-29T11:43:29.773Z,22.17
2022-11-29T11:46:50.259Z,23.38
2022-11-29T11:50:04.797Z,23.70
2022-11-29T11:53:20.211Z,20.88
2022-11-29T11:56:24.417Z,25.23
2022-11-29T11:59:27.974Z,26.25
2022-11-29T12:02:40.057Z,21.58
2022-11-29T12:05:46.202Z,26.60
2022-11-29T12:08:49.658Z,25.15
2022-11-29T12:12:33.818Z,24.03
2022-11-29T12:15:41.624Z,21.35
2022-11-29T12:18:50.577Z,20.17
2022-11-29T12:21:59.899Z,21.52
2022-11-29T12:25:18.670Z,25.85
2022-11-29T12:28:29.415Z,23.67
2022-11-29T12:31:45.848Z,25.10
2022-11-29T12:35:06.780Z,21.67
2022-11-29T12:38:42.858Z,21.17
2022-11-29T12:41:54.425Z,23.55
2022-11-29T12:45:05.668Z,23.97
2022-11-29T12:48:41.120Z,24.10
2022-11-29T12:52:28.965Z,23.67
2022-11-29T12:55:50.525Z,26.33
2022-11-29T12:59:11.026Z,23.55
2022-11-29T13:02:45.919Z,21.73
2022-11-29T13:05:59.444Z,21.55
2022-11-29T13:09:08.209Z,27.25
2022-11-29T13:12:18.692Z,22.17
2022-11-29T13:15:59.257Z,25.55
2022-11-29T13:19:15.097Z,18.47
2022-11-29T13:22:49.709Z,21.67
2022-11-29T13:25:54.718Z,20.90
2022-11-29T13:28:58.658Z,21.70
2022-11-29T13:32:04.478Z,23.67
2022-11-29T13:35:19.251Z,21.53
2022-11-29T13:39:08.056Z,20.85
2022-11-29T13:42:16.998Z,23.33
2022-11-29T13:45:34.567Z,21.13
2022-11-29T13:48:49.444Z,22.25
2022-11-29T13:52:05.757Z,20.80
2022-11-29T13:55:23.264Z,21.52
2022-11-29T13:58:28.684Z,20.20
2022-11-29T14:01:47.141Z,20.33
2022-11-29T14:04:49.862Z,20.50
2022-11-29T14:08:55.207Z,20.97
2022-11-29T14:12:03.251Z,22.38
2022-11-29T14:15:14.313Z,21.52
2022-11-29T14:18:42.591Z,19.75
2022-11-29T14:22:03.229Z,23.13
2022-11-29T14:25:49.892Z,21.17
2022-11-29T14:28:59.102Z,20.35
2022-11-29T14:32:01.663Z,21.17
2022-11-29T14:35:11.096Z,22.45
2022-11-29T14:38:32.905Z,21.60
2022-11-29T14:41:50.878Z,23.90
2022-11-29T14:45:06.350Z,20.65
2022-11-29T14:48:31.787Z,19.98
2022-11-29T14:51:35.150Z,20.05
2022-11-29T14:54:55.864Z,18.85
2022-11-29T14:57:58.727Z,23.40
2022-11-29T15:01:10.076Z,21.80
2022-11-29T15:04:13.641Z,22.98
2022-11-29T15:07:22.471Z,24.63
2022-11-29T15:10:31.939Z,21.08
2022-11-29T15:13:36.480Z,21.13
2022-11-29T15:16:53.430Z,23.90
2022-11-29T15:20:28.567Z,20.80
2022-11-29T15:23:40.707Z,22.88
2022-11-29T15:26:59.033Z,20.98
2022-11-29T15:30:39.621Z,22.47
2022-11-29T15:33:44.607Z,18.42
2022-11-29T15:36:48.648Z,20.55
2022-11-29T15:40:13.520Z,20.13
2022-11-29T15:43:31.429Z,18.33
2022-11-29T15:46:38.015Z,21.00
2022-11-29T15:49:40.680Z,20.73
2022-11-29T15:52:43.625Z,17.83
2022-11-29T15:55:49.705Z,23.35
2022-11-29T15:59:00.382Z,21.08
2022-11-29T16:02:15.124Z,19.43
2022-11-29T16:05:22.582Z,23.27
2022-11-29T16:08:27.755Z,20.75
2022-11-29T16:11:31.846Z,19.58
2022-11-29T16:14:34.626Z,21.55
2022-11-29T16:17:37.712Z,21.27
2022-11-29T16:20:40.773Z,21.92
2022-11-29T16:23:44.297Z,20.15
2022-11-29T16:26:48.980Z,17.60
2022-11-29T16:29:57.407Z,18.60
2022-11-29T16:33:03.689Z,35.60
2022-11-29T16:36:19.103Z,32.67
2022-11-29T16:39:25.528Z,28.77
2022-11-29T16:42:30.316Z,38.95
2022-11-29T16:45:43.130Z,38.78
2022-11-29T16:48:46.267Z,33.40
2022-11-29T16:51:49.195Z,27.50
2022-11-29T16:54:51.940Z,28.33
2022-11-29T16:57:54.531Z,26.83
2022-11-29T17:00:57.641Z,24.67
2022-11-29T17:04:04.026Z,27.47
2022-11-29T17:07:08.939Z,22.00
2022-11-29T17:10:16.454Z,28.27
2022-11-29T17:13:19.330Z,26.00
2022-11-29T17:16:23.677Z,26.77
2022-11-29T17:19:29.228Z,25.80
2022-11-29T17:22:32.089Z,21.90
2022-11-29T17:25:34.687Z,23.63
2022-11-29T17:28:37.623Z,22.25
2022-11-29T17:31:41.664Z,23.92
2022-11-29T17:34:44.848Z,20.03
2022-11-29T17:37:47.938Z,21.88
2022-11-29T17:40:51.339Z,22.17
2022-11-29T17:43:55.642Z,21.42
2022-11-29T17:46:58.786Z,22.13
2022-11-29T17:50:01.585Z,21.50
2022-11-29T17:53:06.329Z,23.77
2022-11-29T17:56:11.946Z,21.73
2022-11-29T17:59:14.778Z,23.75
2022-11-29T18:02:18.632Z,21.70
2022-11-29T18:05:21.376Z,17.93
2022-11-29T18:08:24.125Z,20.73
2022-11-29T18:11:29.858Z,21.50
2022-11-29T18:14:33.822Z,21.77
2022-11-29T18:17:36.715Z,19.52
2022-11-29T18:20:39.824Z,19.50
2022-11-29T18:23:44.225Z,21.48
2022-11-29T18:26:46.908Z,22.55
2022-11-29T18:29:50.091Z,22.63
2022-11-29T18:32:53.468Z,23.13
2022-11-29T18:36:03.097Z,21.77
2022-11-29T18:39:13.389Z,19.35
2022-11-29T18:42:17.184Z,19.17
2022-11-29T18:45:20.172Z,17.50
2022-11-29T18:48:23.503Z,16.95
2022-11-29T18:51:27.869Z,19.63
2022-11-29T18:54:31.468Z,19.63
2022-11-29T18:57:35.442Z,20.13
2022-11-29T19:00:38.628Z,21.00
2022-11-29T19:03:44.293Z,21.58
2022-11-29T19:06:47.781Z,20.83
2022-11-29T19:09:50.544Z,17.15
2022-11-29T19:12:53.564Z,16.50
2022-11-29T19:15:57.160Z,19.58
2022-11-29T19:19:01.412Z,19.42
2022-11-29T19:22:04.605Z,17.57
2022-11-29T19:25:08.400Z,18.58
2022-11-29T19:28:14.248Z,18.75
2022-11-29T19:31:20.156Z,16.88
2022-11-29T19:34:23.159Z,16.48
2022-11-29T19:37:25.733Z,17.50
2022-11-29T19:40:28.889Z,18.35
2022-11-29T19:43:32.397Z,19.55
2022-11-29T19:46:38.390Z,16.20
2022-11-29T19:49:46.163Z,17.55
2022-11-29T19:52:51.056Z,18.20
2022-11-29T19:55:53.727Z,17.23
2022-11-29T19:58:57.146Z,18.67
2022-11-29T20:02:00.786Z,16.25
2022-11-29T20:05:03.956Z,16.92
2022-11-29T20:08:07.942Z,17.10
2022-11-29T20:11:16.652Z,19.10
2022-11-29T20:14:25.219Z,16.73
2022-11-29T20:17:28.329Z,16.40
2022-11-29T20:20:31.541Z,17.08
2022-11-29T20:23:34.990Z,17.70
2022-11-29T20:26:40.201Z,18.50
2022-11-29T20:29:43.353Z,17.27
2022-11-29T20:32:46.739Z,16.90
2022-11-29T20:36:09.261Z,18.42
2022-11-29T20:39:42.161Z,16.50
2022-11-29T20:43:11.512Z,15.60
2022-11-29T20:46:14.842Z,16.60
2022-11-29T20:49:18.737Z,16.65
2022-11-29T20:52:28.168Z,16.20
2022-11-29T20:55:31.452Z,15.20
2022-11-29T20:58:35.636Z,16.50
2022-11-29T21:01:38.681Z,16.98
2022-11-29T21:04:41.595Z,15.18
2022-11-29T21:07:45.965Z,16.17
2022-11-29T21:10:50.210Z,14.63
2022-11-29T21:13:53.025Z,16.63
2022-11-29T21:16:55.987Z,17.30
2022-11-29T21:19:59.438Z,18.13
2022-11-29T21:23:09.149Z,15.32
2022-11-29T21:26:17.918Z,17.23
2022-11-29T21:29:23.853Z,15.25
2022-11-29T21:32:27.371Z,15.73
2022-11-29T21:35:30.004Z,16.08
2022-11-29T21:38:33.406Z,16.25
2022-11-29T21:41:36.408Z,13.23
2022-11-29T21:44:38.952Z,13.68
2022-11-29T21:47:41.419Z,15.50
2022-11-29T21:50:49.713Z,14.07
2022-11-29T21:53:52.153Z,15.15
2022-11-29T21:56:55.099Z,13.67
2022-11-29T21:59:58.102Z,14.90
2022-11-29T22:03:00.951Z,16.13
2022-11-29T22:06:20.598Z,15.13
2022-11-29T22:09:23.291Z,14.48
2022-11-29T22:12:34.154Z,14.17
2022-11-29T22:15:37.206Z,13.77
2022-11-29T22:18:39.897Z,13.32
2022-11-29T22:21:44.393Z,15.50
2022-11-29T22:24:47.494Z,15.13
2022-11-29T22:27:50.516Z,15.17
2022-11-29T22:30:52.948Z,15.18
2022-11-29T22:33:56.180Z,14.80
2022-11-29T22:36:58.668Z,13.63
2022-11-29T22:40:04.399Z,14.10
2022-11-29T22:43:06.907Z,15.07
2022-11-29T22:46:09.293Z,15.20
2022-11-29T22:49:13.780Z,15.85
2022-11-29T22:52:16.314Z,14.27
2022-11-29T22:55:20.445Z,14.45
2022-11-29T22:58:23.127Z,13.93
2022-11-29T23:01:28.495Z,13.70
2022-11-29T23:04:30.947Z,13.63
2022-11-29T23:07:33.475Z,13.88
2022-11-29T23:10:36.079Z,14.65
2022-11-29T23:13:40.334Z,13.40
2022-11-29T23:16:42.899Z,14.55
2022-11-29T23:19:45.385Z,12.63
2022-11-29T23:22:47.918Z,12.95
2022-11-29T23:25:50.715Z,13.88
2022-11-29T23:28:54.354Z,13.67
2022-11-29T23:31:56.786Z,14.45
2022-11-29T23:34:59.327Z,14.90
2022-11-29T23:38:01.882Z,12.13
2022-11-29T23:41:05.549Z,12.50
2022-11-29T23:44:09.416Z,12.00
2022-11-29T23:47:11.940Z,12.52
2022-11-29T23:50:15.781Z,13.23
2022-11-29T23:53:18.952Z,11.73
2022-11-29T23:56:21.983Z,13.10
2022-11-29T23:59:24.467Z,13.07
